| time (UTC) | temp C | wind direction | speed KPH | gust KPH | rain 1hr cm | rain 24hr cm | rain mn cm | humidity % | barometer mb |
| 20260906213255 | 30 | 262 | 3.2 | 3.2 | 0.00 | 0.00 | 0.00 | 43 | 1023.3 |
| 20260906212752 | 30 | 100 | 6.4 | 14.5 | 0.00 | 0.00 | 0.00 | 42 | 1023.4 |
| 20260906212248 | 29 | 145 | 9.7 | 11.3 | 0.00 | 0.00 | 0.00 | 42 | 1023.4 |
| 20260906211748 | 30 | 324 | 8.0 | 12.9 | 0.00 | 0.00 | 0.00 | 41 | 1023.3 |
| 20260906211243 | 29 | 156 | 4.8 | 9.7 | 0.00 | 0.00 | 0.00 | 43 | 1023.6 |
| 20260906210738 | 29 | 2 | 3.2 | 3.2 | 0.00 | 0.00 | 0.00 | 40 | 1023.4 |
| 20260906210233 | 29 | 126 | 8.0 | 11.3 | 0.00 | 0.00 | 0.00 | 41 | 1023.6 |
| 20260906205728 | 30 | 108 | 9.7 | 14.5 | 0.00 | 0.00 | 0.00 | 40 | 1023.7 |
| 20260906205225 | 30 | 205 | 3.2 | 4.8 | 0.00 | 0.00 | 0.00 | 41 | 1023.7 |
| 20260906204724 | 30 | 156 | 9.7 | 12.9 | 0.00 | 0.00 | 0.00 | 40 | 1023.7 |
| 20260906204223 | 30 | 156 | 8.0 | 9.7 | 0.00 | 0.00 | 0.00 | 38 | 1023.9 |
| 20260906203723 | 30 | 161 | 11.3 | 20.9 | 0.00 | 0.00 | 0.00 | 38 | 1024.0 |
| 20260906203218 | 30 | 305 | 3.2 | 3.2 | 0.00 | 0.00 | 0.00 | 39 | 1024.3 |
| 20260906202716 | 30 | 94 | 8.0 | 12.9 | 0.00 | 0.00 | 0.00 | 39 | 1024.3 |
| 20260906202215 | 30 | 185 | 3.2 | 3.2 | 0.00 | 0.00 | 0.00 | 39 | 1024.3 |
| 20260906201710 | 30 | 112 | 8.0 | 9.7 | 0.00 | 0.00 | 0.00 | 38 | 1024.3 |
| 20260906201209 | 30 | 166 | 6.4 | 8.0 | 0.00 | 0.00 | 0.00 | 40 | 1024.3 |
| 20260906200705 | 30 | 310 | 4.8 | 9.7 | 0.00 | 0.00 | 0.00 | 40 | 1024.3 |
| 20260906200201 | 30 | 113 | 9.7 | 16.1 | 0.00 | 0.00 | 0.00 | 40 | 1024.4 |
| 20260906195656 | 30 | 357 | 9.7 | 12.9 | 0.00 | 0.00 | 0.00 | 42 | 1024.4 |
| 20260906195153 | 30 | 222 | 3.2 | 4.8 | 0.00 | 0.00 | 0.00 | 41 | 1024.6 |
| 20260906194648 | 30 | 11 | 8.0 | 9.7 | 0.00 | 0.00 | 0.00 | 41 | 1024.4 |
| 20260906194143 | 30 | 28 | 3.2 | 3.2 | 0.00 | 0.00 | 0.00 | 41 | 1024.6 |
| 20260906193638 | 30 | 60 | 8.0 | 11.3 | 0.00 | 0.00 | 0.00 | 40 | 1024.8 |
| 20260906193133 | 30 | 157 | 4.8 | 4.8 | 0.00 | 0.00 | 0.00 | 39 | 1024.6 |
| 20260906192629 | 29 | 318 | 3.2 | 8.0 | 0.00 | 0.00 | 0.00 | 42 | 1024.6 |
| 20260906192128 | 29 | 147 | 8.0 | 9.7 | 0.00 | 0.00 | 0.00 | 40 | 1024.8 |
| 20260906191623 | 29 | 64 | 8.0 | 9.7 | 0.00 | 0.00 | 0.00 | 42 | 1024.8 |
| 20260906191122 | 29 | 53 | 8.0 | 12.9 | 0.00 | 0.00 | 0.00 | 42 | 1025.1 |
| 20260906190617 | 29 | 125 | 11.3 | 12.9 | 0.00 | 0.00 | 0.00 | 41 | 1024.9 |
| 20260906190112 | 28 | 56 | 8.0 | 12.9 | 0.00 | 0.00 | 0.00 | 42 | 1025.1 |
| 20260906185610 | 28 | 176 | 4.8 | 4.8 | 0.00 | 0.00 | 0.00 | 43 | 1025.1 |
| 20260906185109 | 28 | 182 | 3.2 | 4.8 | 0.00 | 0.00 | 0.00 | 43 | 1025.2 |
| 20260906184604 | 28 | 59 | 6.4 | 9.7 | 0.00 | 0.00 | 0.00 | 42 | 1025.5 |
| 20260906184100 | 28 | 2 | 4.8 | 8.0 | 0.00 | 0.00 | 0.00 | 43 | 1025.5 |
| 20260906183556 | 28 | 29 | 9.7 | 14.5 | 0.00 | 0.00 | 0.00 | 44 | 1025.7 |
| 20260906183052 | 28 | 240 | 1.6 | 3.2 | 0.00 | 0.00 | 0.00 | 43 | 1025.7 |
| 20260906182546 | 28 | 320 | 6.4 | 8.0 | 0.00 | 0.00 | 0.00 | 42 | 1025.7 |
| 20260906182043 | 27 | 297 | 6.4 | 9.7 | 0.00 | 0.00 | 0.00 | 43 | 1026.1 |
| 20260906181538 | 27 | 333 | 4.8 | 8.0 | 0.00 | 0.00 | 0.00 | 42 | 1026.2 |
| 20260906181033 | 27 | 7 | 4.8 | 4.8 | 0.00 | 0.00 | 0.00 | 43 | 1026.2 |
| 20260906180528 | 27 | 263 | 0.0 | 0.0 | 0.00 | 0.00 | 0.00 | 42 | 1026.2 |
| 20260906180027 | 27 | 358 | 6.4 | 8.0 | 0.00 | 0.00 | 0.00 | 43 | 1026.2 |
| 20260906175521 | 27 | 327 | 8.0 | 9.7 | 0.00 | 0.00 | 0.00 | 41 | 1026.6 |
| 20260906175020 | 27 | 37 | 3.2 | 3.2 | 0.00 | 0.00 | 0.00 | 42 | 1026.5 |
| 20260906174519 | 27 | 178 | 4.8 | 4.8 | 0.00 | 0.00 | 0.00 | 42 | 1026.5 |
| 20260906174014 | 27 | 196 | 3.2 | 3.2 | 0.00 | 0.00 | 0.00 | 43 | 1026.8 |
| 20260906173509 | 26 | 315 | 3.2 | 3.2 | 0.00 | 0.00 | 0.00 | 41 | 1026.7 |
| 20260906173004 | 27 | 275 | 1.6 | 1.6 | 0.00 | 0.00 | 0.00 | 42 | 1026.8 |
| 20260906172459 | 26 | 283 | 0.0 | 1.6 | 0.00 | 0.00 | 0.00 | 43 | 1026.9 |
| 20260906171954 | 26 | 241 | 1.6 | 3.2 | 0.00 | 0.00 | 0.00 | 43 | 1026.7 |
| 20260906171449 | 26 | 287 | 3.2 | 3.2 | 0.00 | 0.00 | 0.00 | 42 | 1026.8 |
| 20260906170944 | 26 | 24 | 3.2 | 3.2 | 0.00 | 0.00 | 0.00 | 43 | 1026.7 |
| 20260906170441 | 26 | 274 | 1.6 | 1.6 | 0.00 | 0.00 | 0.00 | 43 | 1026.8 |
| 20260906165938 | 26 | 213 | 1.6 | 3.2 | 0.00 | 0.00 | 0.00 | 44 | 1027.1 |
| 20260906165436 | 25 | 245 | 0.0 | 1.6 | 0.00 | 0.00 | 0.00 | 45 | 1027.1 |
| 20260906164932 | 25 | 25 | 1.6 | 1.6 | 0.00 | 0.00 | 0.00 | 45 | 1027.1 |
| 20260906164430 | 25 | 115 | 6.4 | 8.0 | 0.00 | 0.00 | 0.00 | 44 | 1026.9 |
| 20260906163927 | 25 | 259 | 0.0 | 1.6 | 0.00 | 0.00 | 0.00 | 46 | 1027.2 |
| 20260906163422 | 25 | 244 | 1.6 | 3.2 | 0.00 | 0.00 | 0.00 | 46 | 1027.1 |
| 20260906162921 | 25 | 225 | 0.0 | 1.6 | 0.00 | 0.00 | 0.00 | 48 | 1027.2 |
| 20260906162419 | 24 | 297 | 1.6 | 1.6 | 0.00 | 0.00 | 0.00 | 48 | 1027.3 |
| 20260906161915 | 23 | 293 | 3.2 | 3.2 | 0.00 | 0.00 | 0.00 | 50 | 1027.3 |
| 20260906161414 | 23 | 324 | 8.0 | 9.7 | 0.00 | 0.00 | 0.00 | 50 | 1027.2 |
| 20260906160913 | 23 | 345 | 4.8 | 8.0 | 0.00 | 0.00 | 0.00 | 51 | 1027.2 |
| 20260906160407 | 22 | 302 | 4.8 | 4.8 | 0.00 | 0.00 | 0.00 | 52 | 1026.9 |
| 20260906155904 | 23 | 331 | 8.0 | 9.7 | 0.00 | 0.00 | 0.00 | 53 | 1026.9 |
| 20260906155359 | 23 | 324 | 4.8 | 4.8 | 0.00 | 0.00 | 0.00 | 53 | 1027.1 |
| 20260906154855 | 22 | 251 | 3.2 | 3.2 | 0.00 | 0.00 | 0.00 | 55 | 1026.9 |
| 20260906154349 | 22 | 249 | 1.6 | 3.2 | 0.00 | 0.00 | 0.00 | 56 | 1027.2 |
| 20260906153848 | 22 | 330 | 3.2 | 3.2 | 0.00 | 0.00 | 0.00 | 56 | 1027.3 |
| 20260906153347 | 22 | 333 | 8.0 | 9.7 | 0.00 | 0.00 | 0.00 | 57 | 1026.9 |
| 20260906152842 | 21 | 263 | 1.6 | 1.6 | 0.00 | 0.00 | 0.00 | 58 | 1026.9 |
| 20260906152337 | 21 | 251 | 1.6 | 1.6 | 0.00 | 0.00 | 0.00 | 59 | 1027.1 |
| 20260906151836 | 21 | 333 | 4.8 | 4.8 | 0.00 | 0.00 | 0.00 | 61 | 1027.2 |
| 20260906151332 | 21 | 277 | 4.8 | 4.8 | 0.00 | 0.00 | 0.00 | 60 | 1027.3 |
| 20260906150828 | 21 | 294 | 4.8 | 4.8 | 0.00 | 0.00 | 0.00 | 61 | 1027.2 |
| 20260906150323 | 21 | 228 | 0.0 | 1.6 | 0.00 | 0.00 | 0.00 | 64 | 1027.1 |
| 20260906145822 | 21 | 220 | 3.2 | 3.2 | 0.00 | 0.00 | 0.00 | 65 | 1026.9 |
| 20260906145321 | 20 | 317 | 4.8 | 8.0 | 0.00 | 0.00 | 0.00 | 67 | 1026.9 |
| 20260906144816 | 20 | 289 | 3.2 | 3.2 | 0.00 | 0.00 | 0.00 | 67 | 1026.7 |
| 20260906144311 | 20 | 262 | 3.2 | 3.2 | 0.00 | 0.00 | 0.00 | 69 | 1026.8 |
| 20260906143810 | 20 | 259 | 1.6 | 1.6 | 0.00 | 0.00 | 0.00 | 70 | 1026.8 |
| 20260906143308 | 19 | 197 | 4.8 | 8.0 | 0.00 | 0.00 | 0.00 | 71 | 1026.8 |
| 20260906142802 | 19 | 308 | 1.6 | 3.2 | 0.00 | 0.00 | 0.00 | 72 | 1027.1 |
| 20260906142257 | 18 | 255 | 3.2 | 3.2 | 0.00 | 0.00 | 0.00 | 72 | 1026.9 |
| 20260906141756 | 18 | 242 | 6.4 | 8.0 | 0.00 | 0.00 | 0.00 | 72 | 1026.7 |
| 20260906141251 | 18 | 312 | 3.2 | 3.2 | 0.00 | 0.00 | 0.00 | 72 | 1026.7 |
| 20260906140750 | 18 | 279 | 3.2 | 3.2 | 0.00 | 0.00 | 0.00 | 72 | 1026.8 |
| 20260906140245 | 18 | 286 | 3.2 | 4.8 | 0.00 | 0.00 | 0.00 | 72 | 1027.1 |
| 20260906135742 | 17 | 240 | 4.8 | 4.8 | 0.00 | 0.00 | 0.00 | 72 | 1026.8 |
| 20260906135238 | 17 | 259 | 3.2 | 3.2 | 0.00 | 0.00 | 0.00 | 73 | 1026.6 |
| 20260906134734 | 17 | 273 | 3.2 | 3.2 | 0.00 | 0.00 | 0.00 | 72 | 1026.5 |
| 20260906134229 | 17 | 239 | 4.8 | 4.8 | 0.00 | 0.00 | 0.00 | 71 | 1026.3 |
| 20260906133724 | 17 | 225 | 3.2 | 4.8 | 0.00 | 0.00 | 0.00 | 69 | 1026.5 |
| 20260906133220 | 17 | 269 | 1.6 | 3.2 | 0.00 | 0.00 | 0.00 | 67 | 1026.3 |
| 20260906132715 | 16 | 288 | 3.2 | 8.0 | 0.00 | 0.00 | 0.00 | 67 | 1026.3 |
| 20260906132210 | 16 | 337 | 4.8 | 4.8 | 0.00 | 0.00 | 0.00 | 68 | 1026.3 |
| 20260906131706 | 16 | 251 | 1.6 | 1.6 | 0.00 | 0.00 | 0.00 | 68 | 1026.3 |
| 20260906131201 | 16 | 252 | 1.6 | 1.6 | 0.00 | 0.00 | 0.00 | 68 | 1026.3 |
| 20260906130656 | 16 | 246 | 4.8 | 4.8 | 0.00 | 0.00 | 0.00 | 68 | 1026.2 |
| 20260906130151 | 16 | 233 | 4.8 | 4.8 | 0.00 | 0.00 | 0.00 | 68 | 1026.2 |
| 20260906125649 | 16 | 286 | 1.6 | 3.2 | 0.00 | 0.00 | 0.00 | 68 | 1026.5 |
| 20260906125148 | 16 | 283 | 1.6 | 3.2 | 0.00 | 0.00 | 0.00 | 69 | 1026.2 |
| 20260906124643 | 16 | 307 | 1.6 | 1.6 | 0.00 | 0.00 | 0.00 | 67 | 1026.2 |
| 20260906124139 | 16 | 297 | 3.2 | 3.2 | 0.00 | 0.00 | 0.00 | 68 | 1026.5 |
| 20260906123637 | 16 | 248 | 0.0 | 0.0 | 0.00 | 0.00 | 0.00 | 69 | 1026.5 |
| 20260906123133 | 15 | 255 | 0.0 | 1.6 | 0.00 | 0.00 | 0.00 | 69 | 1026.7 |
| 20260906122632 | 15 | 242 | 0.0 | 0.0 | 0.00 | 0.00 | 0.00 | 70 | 1026.6 |
| 20260906122128 | 15 | 259 | 0.0 | 0.0 | 0.00 | 0.00 | 0.00 | 70 | 1026.2 |
| 20260906121624 | 15 | 255 | 1.6 | 1.6 | 0.00 | 0.00 | 0.00 | 70 | 1026.5 |
| 20260906121120 | 15 | 248 | 1.6 | 1.6 | 0.00 | 0.00 | 0.00 | 70 | 1026.2 |
| 20260906120615 | 16 | 248 | 0.0 | 0.0 | 0.00 | 0.00 | 0.00 | 69 | 1026.2 |
| 20260906120113 | 16 | 247 | 0.0 | 1.6 | 0.00 | 0.00 | 0.00 | 68 | 1026.2 |
| 20260906115613 | 16 | 193 | 1.6 | 1.6 | 0.00 | 0.00 | 0.00 | 68 | 1026.2 |
| 20260906115108 | 16 | 281 | 3.2 | 3.2 | 0.00 | 0.00 | 0.00 | 68 | 1026.1 |
| 20260906114602 | 16 | 284 | 1.6 | 3.2 | 0.00 | 0.00 | 0.00 | 67 | 1026.0 |
| 20260906114057 | 16 | 225 | 1.6 | 1.6 | 0.00 | 0.00 | 0.00 | 67 | 1025.9 |
| 20260906113556 | 16 | 201 | 1.6 | 1.6 | 0.00 | 0.00 | 0.00 | 68 | 1026.0 |
| 20260906113052 | 16 | 289 | 0.0 | 1.6 | 0.00 | 0.00 | 0.00 | 68 | 1026.0 |
| 20260906112546 | 16 | 285 | 3.2 | 3.2 | 0.00 | 0.00 | 0.00 | 67 | 1026.0 |
| 20260906112043 | 16 | 233 | 0.0 | 0.0 | 0.00 | 0.00 | 0.00 | 66 | 1026.1 |
| 20260906111542 | 16 | 290 | 1.6 | 1.6 | 0.00 | 0.00 | 0.00 | 66 | 1025.9 |
| 20260906111037 | 16 | 298 | 1.6 | 1.6 | 0.00 | 0.00 | 0.00 | 65 | 1026.2 |
| 20260906110537 | 16 | 184 | 1.6 | 1.6 | 0.00 | 0.00 | 0.00 | 65 | 1025.9 |
| 20260906110036 | 16 | 331 | 3.2 | 3.2 | 0.00 | 0.00 | 0.00 | 65 | 1025.9 |
| 20260906105531 | 16 | 267 | 1.6 | 1.6 | 0.00 | 0.00 | 0.00 | 64 | 1026.0 |
| 20260906105028 | 16 | 267 | 3.2 | 4.8 | 0.00 | 0.00 | 0.00 | 65 | 1026.0 |
| 20260906104526 | 15 | 231 | 1.6 | 1.6 | 0.00 | 0.00 | 0.00 | 70 | 1025.9 |
| 20260906104021 | 15 | 242 | 0.0 | 0.0 | 0.00 | 0.00 | 0.00 | 72 | 1025.9 |
| 20260906103519 | 15 | 269 | 0.0 | 0.0 | 0.00 | 0.00 | 0.00 | 70 | 1025.9 |
| 20260906103015 | 15 | 242 | 0.0 | 0.0 | 0.00 | 0.00 | 0.00 | 70 | 1026.0 |
| 20260906102514 | 15 | 255 | 0.0 | 0.0 | 0.00 | 0.00 | 0.00 | 71 | 1025.9 |
| 20260906102009 | 15 | 242 | 0.0 | 0.0 | 0.00 | 0.00 | 0.00 | 73 | 1025.9 |
| 20260906101504 | 15 | 228 | 3.2 | 3.2 | 0.00 | 0.00 | 0.00 | 73 | 1026.2 |
| 20260906100959 | 15 | 228 | 0.0 | 0.0 | 0.00 | 0.00 | 0.00 | 73 | 1026.1 |
| 20260906100454 | 15 | 200 | 1.6 | 1.6 | 0.00 | 0.00 | 0.00 | 73 | 1026.0 |
| 20260906095948 | 15 | 242 | 0.0 | 0.0 | 0.00 | 0.00 | 0.00 | 72 | 1026.1 |
| 20260906095443 | 15 | 255 | 0.0 | 0.0 | 0.00 | 0.00 | 0.00 | 72 | 1026.2 |
| 20260906094938 | 15 | 234 | 0.0 | 1.6 | 0.00 | 0.00 | 0.00 | 71 | 1025.9 |
| 20260906094432 | 16 | 242 | 0.0 | 0.0 | 0.00 | 0.00 | 0.00 | 70 | 1025.9 |
| 20260906093928 | 16 | 248 | 1.6 | 1.6 | 0.00 | 0.00 | 0.00 | 67 | 1026.0 |
| 20260906093424 | 16 | 255 | 0.0 | 0.0 | 0.00 | 0.00 | 0.00 | 65 | 1026.0 |
| 20260906092919 | 16 | 259 | 0.0 | 0.0 | 0.00 | 0.00 | 0.00 | 67 | 1025.9 |
| 20260906092418 | 16 | 222 | 1.6 | 1.6 | 0.00 | 0.00 | 0.00 | 68 | 1026.0 |
| 20260906091914 | 16 | 248 | 0.0 | 0.0 | 0.00 | 0.00 | 0.00 | 69 | 1025.9 |
| 20260906091410 | 15 | 285 | 1.6 | 1.6 | 0.00 | 0.00 | 0.00 | 69 | 1026.1 |
| 20260906090906 | 15 | 242 | 0.0 | 0.0 | 0.00 | 0.00 | 0.00 | 69 | 1025.7 |
| 20260906090406 | 16 | 248 | 0.0 | 0.0 | 0.00 | 0.00 | 0.00 | 68 | 1025.5 |
| 20260906085900 | 16 | 254 | 0.0 | 0.0 | 0.00 | 0.00 | 0.00 | 66 | 1025.7 |
| 20260906085354 | 16 | 291 | 0.0 | 0.0 | 0.00 | 0.00 | 0.00 | 65 | 1025.6 |
| 20260906084848 | 17 | 242 | 0.0 | 0.0 | 0.00 | 0.00 | 0.00 | 64 | 1025.6 |
| 20260906084348 | 17 | 232 | 0.0 | 0.0 | 0.00 | 0.00 | 0.00 | 63 | 1025.9 |
| 20260906083843 | 17 | 255 | 0.0 | 0.0 | 0.00 | 0.00 | 0.00 | 62 | 1025.7 |
| 20260906083338 | 17 | 275 | 0.0 | 0.0 | 0.00 | 0.00 | 0.00 | 63 | 1025.7 |
| 20260906082832 | 17 | 267 | 0.0 | 0.0 | 0.00 | 0.00 | 0.00 | 63 | 1025.7 |
| 20260906082327 | 18 | 238 | 0.0 | 0.0 | 0.00 | 0.00 | 0.00 | 60 | 1026.0 |
| 20260906081823 | 18 | 216 | 1.6 | 1.6 | 0.00 | 0.00 | 0.00 | 58 | 1026.2 |
| 20260906081319 | 19 | 228 | 0.0 | 0.0 | 0.00 | 0.00 | 0.00 | 57 | 1026.1 |
| 20260906080815 | 18 | 272 | 0.0 | 0.0 | 0.00 | 0.00 | 0.00 | 56 | 1025.9 |
| 20260906080311 | 18 | 227 | 0.0 | 1.6 | 0.00 | 0.00 | 0.00 | 57 | 1026.1 |
| 20260906075810 | 18 | 175 | 3.2 | 3.2 | 0.00 | 0.00 | 0.00 | 56 | 1026.2 |
| 20260906075310 | 18 | 219 | 1.6 | 1.6 | 0.00 | 0.00 | 0.00 | 58 | 1026.2 |
| 20260906074806 | 18 | 254 | 0.0 | 0.0 | 0.00 | 0.00 | 0.00 | 59 | 1026.1 |
| 20260906074305 | 17 | 241 | 0.0 | 0.0 | 0.00 | 0.00 | 0.00 | 59 | 1026.0 |
| 20260906073804 | 18 | 248 | 0.0 | 0.0 | 0.00 | 0.00 | 0.00 | 59 | 1026.1 |
| 20260906073259 | 18 | 266 | 0.0 | 0.0 | 0.00 | 0.00 | 0.00 | 58 | 1026.2 |
| 20260906072755 | 18 | 256 | 0.0 | 0.0 | 0.00 | 0.00 | 0.00 | 57 | 1025.9 |
| 20260906072251 | 18 | 238 | 3.2 | 3.2 | 0.00 | 0.00 | 0.00 | 56 | 1026.0 |
| 20260906071747 | 18 | 266 | 0.0 | 0.0 | 0.00 | 0.00 | 0.00 | 56 | 1026.0 |
| 20260906071247 | 18 | 221 | 1.6 | 3.2 | 0.00 | 0.00 | 0.00 | 56 | 1026.1 |
| 20260906070743 | 18 | 216 | 1.6 | 1.6 | 0.00 | 0.00 | 0.00 | 55 | 1025.7 |
| 20260906070239 | 18 | 224 | 0.0 | 0.0 | 0.00 | 0.00 | 0.00 | 55 | 1025.9 |
| 20260906065738 | 19 | 259 | 0.0 | 0.0 | 0.00 | 0.00 | 0.00 | 54 | 1025.6 |
| 20260906065233 | 20 | 242 | 0.0 | 0.0 | 0.00 | 0.00 | 0.00 | 52 | 1025.7 |
| 20260906064729 | 20 | 245 | 1.6 | 1.6 | 0.00 | 0.00 | 0.00 | 52 | 1025.7 |
| 20260906064224 | 20 | 309 | 3.2 | 3.2 | 0.00 | 0.00 | 0.00 | 52 | 1025.9 |
| 20260906063719 | 20 | 250 | 1.6 | 1.6 | 0.00 | 0.00 | 0.00 | 52 | 1025.6 |
| 20260906063215 | 20 | 264 | 0.0 | 1.6 | 0.00 | 0.00 | 0.00 | 51 | 1025.6 |
| 20260906062710 | 20 | 204 | 4.8 | 4.8 | 0.00 | 0.00 | 0.00 | 51 | 1025.6 |
| 20260906062209 | 20 | 273 | 3.2 | 3.2 | 0.00 | 0.00 | 0.00 | 51 | 1025.7 |
| 20260906061705 | 21 | 302 | 4.8 | 8.0 | 0.00 | 0.00 | 0.00 | 49 | 1025.6 |
| 20260906061201 | 21 | 266 | 3.2 | 4.8 | 0.00 | 0.00 | 0.00 | 49 | 1026.0 |
| 20260906060657 | 21 | 277 | 8.0 | 11.3 | 0.00 | 0.00 | 0.00 | 47 | 1025.7 |
| 20260906060154 | 21 | 274 | 4.8 | 8.0 | 0.00 | 0.00 | 0.00 | 47 | 1026.0 |
| 20260906055649 | 21 | 223 | 1.6 | 3.2 | 0.00 | 0.00 | 0.00 | 48 | 1026.0 |
| 20260906055144 | 21 | 259 | 0.0 | 1.6 | 0.00 | 0.00 | 0.00 | 48 | 1026.0 |
| 20260906054640 | 21 | 263 | 0.0 | 0.0 | 0.00 | 0.00 | 0.00 | 48 | 1026.0 |
| 20260906054135 | 21 | 256 | 1.6 | 1.6 | 0.00 | 0.00 | 0.00 | 48 | 1026.0 |
| 20260906053631 | 21 | 262 | 1.6 | 1.6 | 0.00 | 0.00 | 0.00 | 48 | 1025.9 |
| 20260906053126 | 21 | 271 | 0.0 | 1.6 | 0.00 | 0.00 | 0.00 | 47 | 1026.0 |
| 20260906052621 | 21 | 263 | 0.0 | 1.6 | 0.00 | 0.00 | 0.00 | 46 | 1026.1 |
| 20260906052118 | 21 | 258 | 0.0 | 0.0 | 0.00 | 0.00 | 0.00 | 46 | 1026.1 |
| 20260906051614 | 21 | 259 | 0.0 | 0.0 | 0.00 | 0.00 | 0.00 | 45 | 1026.1 |
| 20260906051109 | 21 | 265 | 0.0 | 0.0 | 0.00 | 0.00 | 0.00 | 45 | 1025.9 |
| 20260906050604 | 22 | 254 | 0.0 | 0.0 | 0.00 | 0.00 | 0.00 | 44 | 1026.0 |
| 20260906050059 | 22 | 228 | 0.0 | 1.6 | 0.00 | 0.00 | 0.00 | 44 | 1026.3 |
| 20260906045557 | 22 | 250 | 0.0 | 0.0 | 0.00 | 0.00 | 0.00 | 43 | 1026.1 |
| 20260906045053 | 22 | 251 | 0.0 | 0.0 | 0.00 | 0.00 | 0.00 | 43 | 1026.1 |
| 20260906044549 | 23 | 257 | 0.0 | 0.0 | 0.00 | 0.00 | 0.00 | 43 | 1026.3 |
| 20260906044044 | 23 | 264 | 1.6 | 1.6 | 0.00 | 0.00 | 0.00 | 44 | 1026.3 |
| 20260906043539 | 23 | 208 | 1.6 | 1.6 | 0.00 | 0.00 | 0.00 | 43 | 1026.2 |
| 20260906043036 | 23 | 257 | 0.0 | 0.0 | 0.00 | 0.00 | 0.00 | 42 | 1026.2 |
| 20260906042534 | 24 | 295 | 0.0 | 1.6 | 0.00 | 0.00 | 0.00 | 40 | 1026.1 |
| 20260906042029 | 23 | 189 | 1.6 | 3.2 | 0.00 | 0.00 | 0.00 | 43 | 1026.3 |
| 20260906041526 | 23 | 294 | 1.6 | 1.6 | 0.00 | 0.00 | 0.00 | 50 | 1026.3 |
| 20260906041025 | 23 | 259 | 0.0 | 0.0 | 0.00 | 0.00 | 0.00 | 52 | 1026.2 |
| 20260906040520 | 22 | 239 | 1.6 | 1.6 | 0.00 | 0.00 | 0.00 | 54 | 1026.3 |
| 20260906040016 | 23 | 301 | 1.6 | 3.2 | 0.00 | 0.00 | 0.00 | 56 | 1026.2 |
| 20260906035511 | 23 | 273 | 1.6 | 1.6 | 0.00 | 0.00 | 0.00 | 55 | 1026.3 |
| 20260906035007 | 24 | 235 | 1.6 | 1.6 | 0.00 | 0.00 | 0.00 | 54 | 1026.3 |
| 20260906034507 | 24 | 188 | 4.8 | 4.8 | 0.00 | 0.00 | 0.00 | 55 | 1026.3 |
| 20260906034001 | 23 | 186 | 6.4 | 8.0 | 0.00 | 0.00 | 0.00 | 54 | 1026.2 |
| 20260906033456 | 23 | 163 | 4.8 | 8.0 | 0.00 | 0.00 | 0.00 | 54 | 1026.1 |
| 20260906032952 | 23 | 264 | 0.0 | 0.0 | 0.00 | 0.00 | 0.00 | 54 | 1026.1 |
| 20260906032448 | 24 | 251 | 0.0 | 0.0 | 0.00 | 0.00 | 0.00 | 53 | 1026.2 |
| 20260906031943 | 24 | 294 | 3.2 | 3.2 | 0.00 | 0.00 | 0.00 | 52 | 1026.2 |
| 20260906031438 | 25 | 300 | 4.8 | 4.8 | 0.00 | 0.00 | 0.00 | 52 | 1026.3 |
| 20260906030933 | 25 | 343 | 9.7 | 11.3 | 0.00 | 0.00 | 0.00 | 51 | 1026.2 |
| 20260906030428 | 25 | 1 | 11.3 | 14.5 | 0.00 | 0.00 | 0.00 | 51 | 1026.1 |
| 20260906025922 | 23 | 333 | 8.0 | 9.7 | 0.00 | 0.00 | 0.00 | 44 | 1026.1 |
| 20260906025417 | 22 | 304 | 3.2 | 3.2 | 0.00 | 0.00 | 0.00 | 44 | 1025.9 |
| 20260906024916 | 22 | 267 | 1.6 | 1.6 | 0.00 | 0.00 | 0.00 | 43 | 1024.9 |
| 20260906024415 | 22 | 235 | 0.0 | 0.0 | 0.00 | 0.00 | 0.00 | 43 | 1024.9 |
| 20260906023910 | 22 | 240 | 0.0 | 0.0 | 0.00 | 0.00 | 0.00 | 41 | 1024.8 |
| 20260906023407 | 22 | 227 | 0.0 | 0.0 | 0.00 | 0.00 | 0.00 | 41 | 1024.5 |
| 20260906022906 | 23 | 234 | 0.0 | 0.0 | 0.00 | 0.00 | 0.00 | 40 | 1024.5 |
| 20260906022401 | 23 | 218 | 0.0 | 0.0 | 0.00 | 0.00 | 0.00 | 40 | 1024.3 |
| 20260906021857 | 24 | 229 | 0.0 | 0.0 | 0.00 | 0.00 | 0.00 | 39 | 1024.5 |
| 20260906021356 | 25 | 228 | 0.0 | 0.0 | 0.00 | 0.00 | 0.00 | 38 | 1024.4 |
| 20260906020851 | 25 | 216 | 1.6 | 1.6 | 0.00 | 0.00 | 0.00 | 37 | 1024.5 |
| 20260906020351 | 25 | 183 | 3.2 | 3.2 | 0.00 | 0.00 | 0.00 | 36 | 1024.3 |
| 20260906015846 | 25 | 177 | 1.6 | 3.2 | 0.00 | 0.00 | 0.00 | 36 | 1024.4 |
| 20260906015344 | 25 | 192 | 1.6 | 1.6 | 0.00 | 0.00 | 0.00 | 36 | 1024.5 |
| 20260906014839 | 26 | 201 | 3.2 | 3.2 | 0.00 | 0.00 | 0.00 | 36 | 1024.4 |
| 20260906014333 | 26 | 161 | 4.8 | 4.8 | 0.00 | 0.00 | 0.00 | 35 | 1024.4 |
| 20260906013830 | 26 | 189 | 6.4 | 8.0 | 0.00 | 0.00 | 0.00 | 34 | 1024.3 |
| 20260906013325 | 26 | 164 | 4.8 | 4.8 | 0.00 | 0.00 | 0.00 | 35 | 1024.3 |
| 20260906012820 | 26 | 164 | 6.4 | 8.0 | 0.00 | 0.00 | 0.00 | 35 | 1024.2 |
| 20260906012315 | 26 | 192 | 3.2 | 3.2 | 0.00 | 0.00 | 0.00 | 35 | 1024.0 |
| 20260906011810 | 27 | 182 | 4.8 | 4.8 | 0.00 | 0.00 | 0.00 | 34 | 1024.4 |
| 20260906011310 | 27 | 174 | 3.2 | 3.2 | 0.00 | 0.00 | 0.00 | 35 | 1024.5 |
| 20260906010806 | 27 | 188 | 6.4 | 8.0 | 0.00 | 0.00 | 0.00 | 34 | 1024.3 |
| 20260906010302 | 27 | 176 | 8.0 | 9.7 | 0.00 | 0.00 | 0.00 | 34 | 1024.4 |
| 20260906005756 | 27 | 170 | 9.7 | 9.7 | 0.00 | 0.00 | 0.00 | 34 | 1024.4 |
| 20260906005256 | 27 | 187 | 8.0 | 8.0 | 0.00 | 0.00 | 0.00 | 35 | 1024.4 |
| 20260906004755 | 28 | 179 | 6.4 | 8.0 | 0.00 | 0.00 | 0.00 | 33 | 1024.4 |
| 20260906004249 | 28 | 181 | 3.2 | 3.2 | 0.00 | 0.00 | 0.00 | 32 | 1024.3 |
| 20260906003744 | 28 | 169 | 3.2 | 3.2 | 0.00 | 0.00 | 0.00 | 31 | 1024.4 |
| 20260906003240 | 28 | 163 | 4.8 | 4.8 | 0.00 | 0.00 | 0.00 | 32 | 1024.3 |
| 20260906002735 | 28 | 153 | 6.4 | 8.0 | 0.00 | 0.00 | 0.00 | 31 | 1024.4 |
| 20260906002234 | 28 | 166 | 4.8 | 8.0 | 0.00 | 0.00 | 0.00 | 31 | 1024.3 |
| 20260906001730 | 29 | 196 | 4.8 | 4.8 | 0.00 | 0.00 | 0.00 | 31 | 1024.4 |
| 20260906001225 | 29 | 171 | 4.8 | 4.8 | 0.00 | 0.00 | 0.00 | 31 | 1024.4 |
| 20260906000721 | 29 | 153 | 4.8 | 4.8 | 0.00 | 0.00 | 0.00 | 32 | 1024.2 |
| 20260906000215 | 29 | 175 | 3.2 | 3.2 | 0.00 | 0.00 | 0.00 | 32 | 1024.3 |
| 20260905235715 | 28 | 175 | 4.8 | 4.8 | 0.00 | 0.00 | 0.00 | 32 | 1024.2 |
| 20260905235210 | 28 | 190 | 4.8 | 4.8 | 0.00 | 0.00 | 0.00 | 31 | 1024.3 |
| 20260905234705 | 28 | 163 | 4.8 | 4.8 | 0.00 | 0.00 | 0.00 | 31 | 1024.0 |
| 20260905234201 | 30 | 178 | 6.4 | 8.0 | 0.00 | 0.00 | 0.00 | 31 | 1024.3 |
| 20260905233656 | 30 | 160 | 4.8 | 8.0 | 0.00 | 0.00 | 0.00 | 30 | 1024.3 |
| 20260905233155 | 30 | 157 | 4.8 | 4.8 | 0.00 | 0.00 | 0.00 | 30 | 1024.3 |
| 20260905232650 | 30 | 182 | 6.4 | 8.0 | 0.00 | 0.00 | 0.00 | 30 | 1024.0 |
| 20260905232146 | 29 | 157 | 11.3 | 12.9 | 0.00 | 0.00 | 0.00 | 29 | 1024.0 |
| 20260905231641 | 30 | 131 | 6.4 | 9.7 | 0.00 | 0.00 | 0.00 | 29 | 1024.0 |
| 20260905231137 | 30 | 155 | 6.4 | 9.7 | 0.00 | 0.00 | 0.00 | 28 | 1024.2 |
| 20260905230633 | 30 | 183 | 3.2 | 3.2 | 0.00 | 0.00 | 0.00 | 27 | 1024.0 |
| 20260905230131 | 30 | 258 | 1.6 | 1.6 | 0.00 | 0.00 | 0.00 | 27 | 1024.0 |
| 20260905225625 | 30 | 263 | 1.6 | 3.2 | 0.00 | 0.00 | 0.00 | 26 | 1024.2 |
| 20260905225120 | 31 | 179 | 6.4 | 8.0 | 0.00 | 0.00 | 0.00 | 26 | 1024.0 |
| 20260905224619 | 31 | 258 | 0.0 | 1.6 | 0.00 | 0.00 | 0.00 | 25 | 1024.0 |
| 20260905224119 | 31 | 203 | 4.8 | 4.8 | 0.00 | 0.00 | 0.00 | 26 | 1024.2 |
| 20260905223616 | 30 | 158 | 1.6 | 3.2 | 0.00 | 0.00 | 0.00 | 27 | 1024.2 |
| 20260905223113 | 30 | 284 | 1.6 | 1.6 | 0.00 | 0.00 | 0.00 | 27 | 1024.2 |
| 20260905222613 | 30 | 319 | 1.6 | 3.2 | 0.00 | 0.00 | 0.00 | 27 | 1024.2 |
| 20260905222108 | 29 | 310 | 3.2 | 3.2 | 0.00 | 0.00 | 0.00 | 27 | 1024.2 |
| 20260905221604 | 29 | 289 | 1.6 | 1.6 | 0.00 | 0.00 | 0.00 | 28 | 1024.0 |
| 20260905221100 | 30 | 300 | 1.6 | 1.6 | 0.00 | 0.00 | 0.00 | 28 | 1024.2 |
| 20260905220555 | 31 | 267 | 1.6 | 1.6 | 0.00 | 0.00 | 0.00 | 25 | 1024.2 |
| 20260905220051 | 31 | 187 | 1.6 | 1.6 | 0.00 | 0.00 | 0.00 | 28 | 1024.2 |
| 20260905215550 | 31 | 328 | 1.6 | 1.6 | 0.00 | 0.00 | 0.00 | 27 | 1024.2 |
| 20260905215046 | 30 | 249 | 0.0 | 0.0 | 0.00 | 0.00 | 0.00 | 27 | 1024.3 |
| 20260905214542 | 31 | 329 | 4.8 | 4.8 | 0.00 | 0.00 | 0.00 | 27 | 1024.2 |
| 20260905214037 | 30 | 244 | 1.6 | 1.6 | 0.00 | 0.00 | 0.00 | 27 | 1024.5 |
| 20260905213532 | 30 | 340 | 4.8 | 8.0 | 0.00 | 0.00 | 0.00 | 28 | 1024.4 |